Time;durP1;ratioP1;P1;durP2;ratioP2;P2;SDS_P1;SDS_P2;PMS_P1;PMS_P2;Temp;Humidity;BMP_temperature;BMP_pressure;BME280_temperature;BME280_humidity;BME280_pressure;Samples;Min_cycle;Max_cycle;Signal;HPM_P1;HPM_P2
2022/03/21 00:01:37;;;;;;;12.18;5.35;;;;;;;1.57;40.71;102268.75;4385445;32;33528;-84
2022/03/21 00:04:04;;;;;;;10.55;4.95;;;;;;;1.67;40.13;102270.81;4372890;32;34336;-84
2022/03/21 00:06:32;;;;;;;13.32;5.60;;;;;;;1.65;39.94;102267.25;4347948;32;32789;-84
2022/03/21 00:09:00;;;;;;;13.98;6.32;;;;;;;1.72;39.90;102271.84;4373113;32;33561;-84
2022/03/21 00:11:27;;;;;;;15.43;6.40;;;;;;;1.83;40.05;102266.09;4372789;32;33829;-85
2022/03/21 00:13:56;;;;;;;14.73;6.20;;;;;;;1.90;39.45;102270.63;4348045;32;34147;-83
2022/03/21 00:16:24;;;;;;;16.80;7.45;;;;;;;1.79;39.72;102265.97;4385042;32;33139;-83
2022/03/21 00:18:53;;;;;;;11.30;5.93;;;;;;;1.81;40.02;102270.37;4383586;32;34782;-85
2022/03/21 00:21:20;;;;;;;13.98;6.32;;;;;;;1.63;40.21;102265.44;4361184;32;33993;-86
2022/03/21 00:23:48;;;;;;;12.32;6.85;;;;;;;1.58;40.57;102270.50;4385385;32;34380;-86
2022/03/21 00:26:16;;;;;;;17.70;7.03;;;;;;;1.59;40.86;102269.66;4372478;32;32663;-82
2022/03/21 00:28:44;;;;;;;11.40;6.00;;;;;;;1.62;41.12;102269.78;4348283;32;33027;-82
2022/03/21 00:31:11;;;;;;;16.33;7.60;;;;;;;1.81;40.37;102254.75;4372564;32;33565;-82
2022/03/21 00:33:40;;;;;;;13.15;6.15;;;;;;;1.51;41.23;102271.13;4349124;32;34428;-85
2022/03/21 00:36:08;;;;;;;13.15;6.20;;;;;;;1.58;40.85;102267.91;4372437;32;33598;-84
2022/03/21 00:38:50;;;;;;;;;;;;;;;1.59;40.48;102266.19;4350307;32;33123;-84
2022/03/21 00:41:18;;;;;;;13.38;5.53;;;;;;;1.67;40.37;102262.12;4385195;32;33245;-84
2022/03/21 00:43:46;;;;;;;12.82;5.75;;;;;;;1.44;40.94;102264.84;4384293;32;33454;-84
2022/03/21 00:46:14;;;;;;;10.13;5.18;;;;;;;1.58;40.41;102259.22;4359494;32;32680;-84
2022/03/21 00:48:42;;;;;;;8.65;5.25;;;;;;;1.42;40.81;102270.81;4385141;32;33756;-84
2022/03/21 00:51:11;;;;;;;10.38;5.78;;;;;;;1.67;40.25;102257.78;4360409;32;33892;-84
2022/03/21 00:53:39;;;;;;;10.45;5.12;;;;;;;1.42;41.10;102250.00;4361337;32;33404;-84
2022/03/21 00:56:06;;;;;;;8.45;4.70;;;;;;;1.32;41.28;102258.34;4372994;32;32309;-84
2022/03/21 00:58:35;;;;;;;11.20;5.30;;;;;;;1.34;41.20;102251.50;4384504;32;34169;-83
2022/03/21 01:01:02;;;;;;;12.93;4.18;;;;;;;1.40;41.18;102254.28;4371550;32;34375;-84
2022/03/21 01:03:31;;;;;;;11.98;5.40;;;;;;;1.53;40.98;102253.84;4372084;32;34148;-82
2022/03/21 01:05:58;;;;;;;7.65;4.62;;;;;;;1.35;41.64;102261.06;4372764;32;32736;-84
2022/03/21 01:08:26;;;;;;;13.40;5.20;;;;;;;1.36;41.67;102255.91;4372594;32;33320;-83
2022/03/21 01:10:54;;;;;;;15.88;4.75;;;;;;;1.41;41.42;102254.31;4372318;32;33060;-83
2022/03/21 01:13:22;;;;;;;13.45;4.68;;;;;;;1.30;41.84;102254.81;4372373;32;33033;-84
2022/03/21 01:15:52;;;;;;;13.55;5.07;;;;;;;1.40;41.57;102241.28;4372952;32;32647;-84
2022/03/21 01:18:21;;;;;;;12.27;4.60;;;;;;;1.24;41.74;102251.19;4384854;32;33667;-84
2022/03/21 01:20:49;;;;;;;9.68;4.82;;;;;;;1.38;41.48;102240.34;4372279;32;33536;-84
2022/03/21 01:23:17;;;;;;;8.50;5.25;;;;;;;1.29;41.41;102253.94;4372389;32;35504;-85
2022/03/21 01:25:45;;;;;;;11.50;5.07;;;;;;;1.14;42.05;102253.41;4372421;32;32982;-85
2022/03/21 01:28:13;;;;;;;10.85;5.00;;;;;;;1.28;41.58;102253.06;4371371;32;33939;-84
2022/03/21 01:30:40;;;;;;;15.90;4.50;;;;;;;1.07;42.54;102254.03;4371733;32;32756;-84
2022/03/21 01:33:08;;;;;;;10.88;4.57;;;;;;;0.88;42.50;102247.31;4372169;32;34068;-84
2022/03/21 01:35:36;;;;;;;14.38;4.05;;;;;;;0.97;41.90;102245.03;4384379;32;33602;-83
2022/03/21 01:38:04;;;;;;;10.43;4.80;;;;;;;0.72;42.14;102244.19;4384723;32;33576;-84
2022/03/21 01:40:32;;;;;;;10.55;5.20;;;;;;;0.95;42.08;102241.47;4383941;32;33560;-84
2022/03/21 01:43:00;;;;;;;13.68;4.87;;;;;;;1.26;41.76;102246.00;4359745;32;34146;-84
2022/03/21 01:45:28;;;;;;;9.60;4.80;;;;;;;0.92;42.74;102239.66;4384228;32;34134;-83
2022/03/21 01:47:56;;;;;;;10.63;4.93;;;;;;;0.92;42.96;102244.00;4372147;32;32372;-83
2022/03/21 01:50:24;;;;;;;7.28;4.40;;;;;;;0.95;42.88;102244.06;4384469;32;35026;-84
2022/03/21 01:55:43;;;;;;;6.55;4.20;;;;;;;0.91;42.62;102242.22;4371608;32;33624;-84
2022/03/21 01:55:43;;;;;;;8.25;4.40;;;;;;;0.79;43.27;102241.78;4380000;32;33321;-83
2022/03/21 01:58:16;;;;;;;10.93;5.82;;;;;;;0.86;42.78;102235.97;4371162;32;34714;-84
2022/03/21 02:00:45;;;;;;;8.18;4.20;;;;;;;0.87;42.39;102240.34;4371096;32;33987;-84
2022/03/21 02:03:14;;;;;;;8.23;4.60;;;;;;;0.97;42.37;102239.81;4371815;32;33382;-84
2022/03/21 02:05:45;;;;;;;8.15;5.05;;;;;;;0.93;42.54;102237.94;4383574;32;33191;-84
2022/03/21 02:08:14;;;;;;;6.78;4.68;;;;;;;0.83;42.56;102241.06;4359783;32;33182;-84
2022/03/21 02:10:43;;;;;;;10.20;5.10;;;;;;;0.65;43.22;102231.78;4384532;32;34356;-84
2022/03/21 02:13:10;;;;;;;11.45;4.93;;;;;;;0.40;43.21;102229.13;4371863;32;33621;-84
2022/03/21 02:15:38;;;;;;;10.20;4.97;;;;;;;0.56;43.73;102226.25;4372497;32;32608;-84
2022/03/21 02:18:07;;;;;;;8.30;4.28;;;;;;;0.51;44.05;102225.19;4359317;32;33172;-84
2022/03/21 02:20:36;;;;;;;9.68;4.82;;;;;;;0.83;42.97;102222.87;4372126;32;34073;-84
2022/03/21 02:23:29;;;;;;;7.57;4.78;;;;;;;0.75;42.82;102223.47;4384520;32;34710;-84
2022/03/21 02:25:57;;;;;;;11.32;5.00;;;;;;;0.74;42.81;102221.69;4370306;32;34801;-84
2022/03/21 02:28:26;;;;;;;9.88;5.28;;;;;;;0.98;42.25;102216.47;4372132;32;32826;-84
2022/03/21 02:30:55;;;;;;;10.77;5.78;;;;;;;0.85;42.46;102223.78;4371505;32;32865;-84
2022/03/21 02:33:24;;;;;;;6.90;4.60;;;;;;;0.42;43.60;102227.47;4371075;32;33470;-84
2022/03/21 02:35:55;;;;;;;12.63;4.75;;;;;;;0.14;43.67;102225.56;4359609;32;32105;-86
2022/03/21 02:38:24;;;;;;;11.27;5.18;;;;;;;0.56;42.72;102221.03;4371568;32;33582;-85
2022/03/21 02:40:52;;;;;;;7.60;3.97;;;;;;;0.24;42.81;102223.37;4372427;32;33676;-85
2022/03/21 02:43:20;;;;;;;9.25;4.05;;;;;;;0.11;42.29;102225.47;4373809;32;32786;-83
2022/03/21 02:45:48;;;;;;;9.32;3.78;;;;;;;0.15;42.17;102212.63;4373609;32;33618;-83
2022/03/21 02:48:18;;;;;;;8.18;4.12;;;;;;;0.23;42.27;102223.31;4373472;32;33783;-83
2022/03/21 02:50:55;;;;;;;10.75;4.72;;;;;;;0.51;42.09;102218.28;4385918;32;33954;-83
2022/03/21 02:53:25;;;;;;;9.20;3.67;;;;;;;0.57;42.70;102215.03;4386036;32;33541;-82
2022/03/21 02:55:53;;;;;;;8.77;4.20;;;;;;;0.53;42.90;102214.88;4373782;32;33394;-83
2022/03/21 02:58:21;;;;;;;8.13;4.20;;;;;;;0.66;42.35;102220.53;4386154;32;34285;-84
2022/03/21 03:00:49;;;;;;;11.02;4.65;;;;;;;0.49;43.08;102216.47;4373593;32;33492;-84
2022/03/21 03:03:17;;;;;;;8.65;4.40;;;;;;;0.63;42.57;102217.84;4361413;32;32914;-83
2022/03/21 03:05:45;;;;;;;8.70;4.43;;;;;;;0.07;43.59;102218.38;4385930;32;33247;-83
2022/03/21 03:08:13;;;;;;;11.30;4.87;;;;;;;0.38;43.27;102215.19;4386313;32;33920;-83
2022/03/21 03:10:40;;;;;;;7.90;4.07;;;;;;;0.54;42.75;102219.25;4373528;32;34353;-83
2022/03/21 03:13:09;;;;;;;11.43;5.15;;;;;;;0.41;43.13;102210.97;4373531;32;33628;-83
2022/03/21 03:15:37;;;;;;;10.32;4.55;;;;;;;0.51;43.06;102222.59;4349115;32;33745;-83
2022/03/21 03:18:05;;;;;;;7.97;4.18;;;;;;;0.51;43.00;102217.41;4349102;32;33786;-83
2022/03/21 03:20:33;;;;;;;8.52;4.32;;;;;;;0.45;43.35;102219.78;4386326;32;34244;-83
2022/03/21 03:23:02;;;;;;;8.77;5.10;;;;;;;0.31;43.35;102223.59;4385216;32;33095;-83
2022/03/21 03:25:29;;;;;;;9.63;5.65;;;;;;;0.36;43.36;102216.84;4386060;32;32155;-84
2022/03/21 03:27:57;;;;;;;8.98;5.00;;;;;;;0.52;42.93;102221.75;4386100;32;35148;-85
2022/03/21 03:30:25;;;;;;;8.93;4.25;;;;;;;0.39;43.41;102216.97;4385960;32;32649;-86
2022/03/21 03:32:53;;;;;;;5.70;3.97;;;;;;;0.30;43.58;102216.63;4373517;32;33734;-87
2022/03/21 03:35:20;;;;;;;10.23;4.45;;;;;;;0.35;43.25;102222.87;4384912;32;33570;-87
2022/03/21 03:37:49;;;;;;;8.57;3.92;;;;;;;0.32;43.42;102215.84;4385764;32;34639;-85
2022/03/21 03:40:17;;;;;;;9.38;4.00;;;;;;;0.39;43.45;102224.78;4360202;32;33926;-84
2022/03/21 03:42:46;;;;;;;7.43;4.57;;;;;;;0.33;43.57;102227.13;4385662;32;33572;-84
2022/03/21 03:45:14;;;;;;;12.02;5.20;;;;;;;0.22;43.59;102224.13;4366147;32;33907;-83
2022/03/21 03:47:42;;;;;;;10.00;4.47;;;;;;;0.02;44.36;102223.41;4385683;32;34683;-83
2022/03/21 03:50:10;;;;;;;8.57;4.65;;;;;;;0.06;44.46;102227.00;4385641;32;34459;-83
2022/03/21 03:52:40;;;;;;;13.27;4.82;;;;;;;0.07;44.78;102234.84;4385684;32;33353;-83
2022/03/21 03:55:08;;;;;;;9.95;5.45;;;;;;;-0.15;44.81;102238.31;4373247;32;34118;-83
2022/03/21 03:57:36;;;;;;;13.23;4.57;;;;;;;0.17;44.16;102239.56;4385869;32;34674;-82
2022/03/21 04:00:06;;;;;;;10.18;4.80;;;;;;;0.15;44.06;102233.44;4360881;32;33822;-83
2022/03/21 04:05:26;;;;;;;9.20;4.57;;;;;;;0.17;44.14;102231.75;4382045;32;33234;-85
2022/03/21 04:07:54;;;;;;;12.15;5.93;;;;;;;0.21;44.00;102241.44;4373431;32;33793;-85
2022/03/21 04:10:22;;;;;;;10.70;5.95;;;;;;;0.02;44.85;102238.97;4373359;32;32520;-85
2022/03/21 04:12:50;;;;;;;8.38;5.65;;;;;;;0.06;44.57;102233.06;4385565;32;34156;-84
2022/03/21 04:15:18;;;;;;;10.00;5.68;;;;;;;-0.30;45.46;102233.41;4367196;32;32492;-84
2022/03/21 04:17:47;;;;;;;11.50;5.62;;;;;;;-0.36;45.95;102234.88;4360788;32;32828;-84
2022/03/21 04:20:15;;;;;;;12.85;6.07;;;;;;;-0.06;45.17;102225.69;4385633;32;33208;-84
2022/03/21 04:22:42;;;;;;;10.30;5.55;;;;;;;0.16;44.46;102230.00;4385410;32;33870;-83
2022/03/21 04:25:10;;;;;;;11.88;6.18;;;;;;;0.11;44.63;102239.31;4385667;32;33273;-85
2022/03/21 04:27:39;;;;;;;10.80;5.50;;;;;;;-0.07;45.09;102236.91;4385467;32;33581;-85
2022/03/21 04:30:07;;;;;;;13.00;5.80;;;;;;;-0.24;45.61;102240.53;4379551;32;197588;-84
2022/03/21 04:32:35;;;;;;;10.27;4.90;;;;;;;-0.65;46.41;102242.38;4372849;32;33282;-85
2022/03/21 04:35:04;;;;;;;16.25;5.20;;;;;;;-0.55;46.26;102246.25;4385302;32;34055;-85
2022/03/21 04:37:31;;;;;;;8.52;5.00;;;;;;;-0.27;45.65;102241.31;4385653;32;33898;-85
2022/03/21 04:39:59;;;;;;;14.27;5.37;;;;;;;-0.55;46.07;102244.53;4372912;32;34101;-85
2022/03/21 04:42:28;;;;;;;12.10;4.80;;;;;;;-0.33;45.65;102248.00;4372954;32;33053;-85
2022/03/21 04:44:55;;;;;;;12.30;5.20;;;;;;;-0.48;46.20;102236.97;4385497;32;33226;-85
2022/03/21 04:47:23;;;;;;;11.23;5.53;;;;;;;-0.36;45.92;102240.97;4370988;32;33968;-85
2022/03/21 04:49:51;;;;;;;7.90;4.87;;;;;;;-0.26;45.96;102247.41;4373906;32;32596;-85
2022/03/21 04:52:18;;;;;;;13.62;5.70;;;;;;;-0.22;45.61;102251.91;4372206;32;33004;-85
2022/03/21 04:54:47;;;;;;;8.65;4.62;;;;;;;-0.61;46.12;102254.66;4359602;32;33076;-85
2022/03/21 04:57:19;;;;;;;12.60;5.18;;;;;;;-0.45;46.12;102253.56;4348574;32;34563;-85
2022/03/21 04:59:48;;;;;;;10.88;5.60;;;;;;;-0.35;45.84;102249.63;4384880;32;33496;-84
2022/03/21 05:02:16;;;;;;;19.92;5.97;;;;;;;-0.29;46.12;102250.75;4372497;32;31222;-84
2022/03/21 05:04:44;;;;;;;11.43;5.70;;;;;;;-0.30;46.14;102261.09;4384390;32;33565;-82
2022/03/21 05:07:19;;;;;;;9.82;5.20;;;;;;;-0.57;47.14;102258.25;4360096;32;34400;-82
2022/03/21 05:09:48;;;;;;;14.48;5.97;;;;;;;-0.44;46.62;102268.31;4382692;32;34073;-82
2022/03/21 05:12:15;;;;;;;11.70;4.47;;;;;;;-0.45;46.73;102269.16;4348059;32;33927;-83
2022/03/21 05:14:47;;;;;;;14.25;5.32;;;;;;;-0.05;45.65;102253.44;4361224;32;34291;-83
2022/03/21 05:17:17;;;;;;;12.32;5.55;;;;;;;-0.28;46.11;102267.25;4358756;32;34545;-82
2022/03/21 05:19:45;;;;;;;13.07;5.03;;;;;;;-0.38;46.41;102263.41;4371558;32;33782;-83
2022/03/21 05:22:13;;;;;;;10.68;6.10;;;;;;;-0.06;45.68;102262.03;4384374;32;33566;-83
2022/03/21 05:36:08;;;;;;;9.57;5.30;;;;;;;-0.36;47.37;102263.44;4371738;32;33939;-83
2022/03/21 05:38:36;;;;;;;11.07;5.45;;;;;;;-0.06;46.71;102269.84;4360750;32;33885;-83
2022/03/21 05:41:04;;;;;;;8.02;5.30;;;;;;;-0.11;46.71;102270.50;4371495;32;34055;-83
2022/03/21 05:43:33;;;;;;;8.85;4.43;;;;;;;0.03;46.39;102279.69;4384487;32;34485;-82
2022/03/21 05:46:03;;;;;;;9.73;4.40;;;;;;;0.20;45.76;102280.38;4372186;32;32943;-80
2022/03/21 05:51:19;;;;;;;10.25;5.30;;;;;;;0.54;45.21;102279.03;4382730;32;33434;-80
2022/03/21 05:53:47;;;;;;;8.48;4.45;;;;;;;0.66;44.24;102275.13;4384485;32;33727;-81
2022/03/21 05:56:14;;;;;;;7.87;3.95;;;;;;;0.75;44.50;102269.38;4384363;32;34305;-81
2022/03/21 05:58:42;;;;;;;10.00;6.30;;;;;;;1.02;44.14;102274.69;4384434;32;33452;-81
2022/03/21 06:01:15;;;;;;;13.93;6.53;;;;;;;0.83;44.33;102269.69;4372064;32;33830;-81
2022/03/21 06:03:43;;;;;;;17.52;6.68;;;;;;;1.10;44.58;102272.38;4370928;32;34705;-81
2022/03/21 06:06:11;;;;;;;16.33;6.28;;;;;;;1.42;44.37;102273.44;4384483;32;33383;-80
2022/03/21 06:08:38;;;;;;;12.77;6.72;;;;;;;1.70;44.20;102276.09;4380097;32;32993;-81
2022/03/21 06:11:08;;;;;;;10.68;6.32;;;;;;;1.66;44.66;102274.25;4383143;32;33489;-81
2022/03/21 06:13:37;;;;;;;10.73;6.47;;;;;;;1.92;44.52;102269.84;4370189;32;35373;-81
2022/03/21 06:16:07;;;;;;;13.65;6.15;;;;;;;1.73;44.49;102272.72;4371941;32;34346;-81
2022/03/21 06:18:36;;;;;;;13.88;6.75;;;;;;;1.96;43.96;102271.72;4348720;32;32915;-81
2022/03/21 06:21:06;;;;;;;17.12;7.60;;;;;;;1.96;43.47;102273.44;4382091;32;34368;-81
2022/03/21 06:23:34;;;;;;;18.83;8.32;;;;;;;1.91;43.58;102272.44;4372081;32;33155;-81
2022/03/21 06:26:02;;;;;;;17.55;6.72;;;;;;;1.99;42.99;102276.12;4386303;32;32509;-81
2022/03/21 06:28:31;;;;;;;17.00;8.38;;;;;;;2.28;43.00;102280.53;4385949;32;33837;-81
2022/03/21 06:30:59;;;;;;;24.05;9.60;;;;;;;2.50;43.07;102282.03;4385660;32;34687;-81
2022/03/21 06:33:29;;;;;;;18.87;9.20;;;;;;;2.39;42.53;102274.75;4386027;32;34166;-81
2022/03/21 06:35:58;;;;;;;16.83;8.88;;;;;;;2.50;43.05;102275.94;4361633;32;33606;-81
2022/03/21 06:38:27;;;;;;;16.12;8.32;;;;;;;2.60;42.84;102279.69;4373233;32;32492;-81
2022/03/21 06:40:55;;;;;;;18.65;7.53;;;;;;;3.03;38.85;102279.12;4385750;32;33442;-81
2022/03/21 06:43:24;;;;;;;17.02;7.40;;;;;;;3.41;37.91;102264.47;4373962;32;33075;-81
2022/03/21 06:45:53;;;;;;;21.45;9.75;;;;;;;3.61;37.31;102270.19;4385832;32;33611;-81
2022/03/21 06:48:23;;;;;;;20.95;9.10;;;;;;;3.93;35.70;102270.06;4386181;32;33450;-81
2022/03/21 06:50:52;;;;;;;16.80;8.13;;;;;;;4.30;35.13;102264.78;4373289;32;33424;-81
2022/03/21 06:53:20;;;;;;;19.55;7.82;;;;;;;4.36;34.67;102280.59;4374107;32;35046;-81
2022/03/21 06:55:50;;;;;;;12.95;7.07;;;;;;;4.74;33.00;102270.03;4373462;32;33221;-81
2022/03/21 06:58:17;;;;;;;14.82;6.87;;;;;;;5.25;33.23;102268.38;4348419;32;34734;-81
2022/03/21 07:00:46;;;;;;;12.60;7.00;;;;;;;5.60;31.56;102272.50;4385971;32;33237;-81
2022/03/21 07:03:19;;;;;;;13.43;6.25;;;;;;;5.57;32.40;102277.66;4384008;32;33620;-80
2022/03/21 07:05:47;;;;;;;16.60;6.57;;;;;;;6.06;31.51;102274.94;4372129;32;32603;-81
2022/03/21 07:08:14;;;;;;;23.85;7.07;;;;;;;6.10;31.51;102268.91;4373165;32;33502;-81
2022/03/21 07:10:44;;;;;;;15.65;7.12;;;;;;;5.73;32.60;102281.41;4385734;32;33935;-81
2022/03/21 07:13:12;;;;;;;15.55;7.47;;;;;;;6.41;29.84;102278.97;4372558;32;33654;-81
2022/03/21 07:15:40;;;;;;;17.45;7.35;;;;;;;6.49;29.54;102280.78;4374386;32;32536;-81
2022/03/21 07:18:08;;;;;;;18.12;7.43;;;;;;;6.97;29.81;102279.59;4385289;32;33816;-81
2022/03/21 07:20:37;;;;;;;16.42;7.18;;;;;;;6.65;31.22;102278.38;4372645;32;34177;-81
2022/03/21 07:23:05;;;;;;;13.40;7.45;;;;;;;7.09;29.10;102263.97;4373450;32;34449;-82
2022/03/21 07:25:32;;;;;;;17.98;8.80;;;;;;;7.24;29.20;102274.63;4373036;32;33810;-81
2022/03/21 07:28:00;;;;;;;14.13;7.47;;;;;;;7.71;28.64;102276.78;4370349;32;33180;-81
2022/03/21 07:30:28;;;;;;;11.18;6.85;;;;;;;7.78;27.87;102273.31;4385732;32;33418;-81
2022/03/21 07:32:57;;;;;;;12.37;6.90;;;;;;;7.32;28.35;102278.22;4384856;32;33839;-81
2022/03/21 07:35:25;;;;;;;13.60;6.15;;;;;;;7.63;27.69;102268.81;4385031;32;33968;-81
2022/03/21 07:37:57;;;;;;;16.25;7.60;;;;;;;7.95;27.93;102271.69;4373295;32;33821;-81
2022/03/21 07:40:26;;;;;;;14.23;7.43;;;;;;;8.15;26.50;102268.28;4372512;32;33975;-80
2022/03/21 07:42:54;;;;;;;11.82;7.03;;;;;;;7.95;26.76;102281.34;4373145;32;34716;-83
2022/03/21 07:48:11;;;;;;;12.73;6.50;;;;;;;7.54;27.81;102284.53;4361193;32;32371;-83
2022/03/21 07:50:41;;;;;;;18.90;7.57;;;;;;;7.84;26.93;102278.63;4382840;32;33217;-82
2022/03/21 07:53:10;;;;;;;15.38;7.40;;;;;;;8.16;26.30;102285.84;4372571;32;34523;-83
2022/03/21 07:55:37;;;;;;;12.88;7.00;;;;;;;7.85;26.75;102280.38;4373213;32;32924;-82
2022/03/21 07:58:05;;;;;;;15.20;7.03;;;;;;;7.68;27.50;102277.63;4372693;32;32911;-83
2022/03/21 08:00:32;;;;;;;14.48;7.62;;;;;;;8.10;26.28;102281.41;4371865;32;34420;-83
2022/03/21 08:03:00;;;;;;;14.82;6.45;;;;;;;7.72;27.00;102286.41;4384910;32;34157;-83
2022/03/21 08:05:29;;;;;;;16.48;7.12;;;;;;;8.47;26.21;102273.75;4360541;32;32633;-82
2022/03/21 08:07:56;;;;;;;16.52;7.62;;;;;;;8.26;26.71;102279.78;4384233;32;34519;-83
2022/03/21 08:10:24;;;;;;;13.50;7.55;;;;;;;8.05;26.70;102279.62;4372897;32;34884;-83
2022/03/21 08:12:53;;;;;;;15.43;8.52;;;;;;;7.94;26.53;102277.81;4371671;32;33961;-83
2022/03/21 08:15:20;;;;;;;11.57;7.00;;;;;;;8.42;26.46;102289.53;4384767;32;33262;-83
2022/03/21 08:17:57;;;;;;;14.35;7.25;;;;;;;8.51;26.02;102279.94;4372156;32;33409;-83
2022/03/21 08:20:33;;;;;;;13.68;8.55;;;;;;;8.49;26.14;102276.38;4383115;32;34211;-83
2022/03/21 08:23:08;;;;;;;13.90;8.63;;;;;;;9.04;25.74;102274.81;4371166;32;34038;-82
2022/03/21 08:25:36;;;;;;;16.80;8.40;;;;;;;8.88;26.23;102271.28;4383876;32;34387;-83
2022/03/21 08:28:05;;;;;;;15.15;7.95;;;;;;;9.07;25.58;102273.94;4371964;32;35000;-83
2022/03/21 08:30:37;;;;;;;10.00;7.25;;;;;;;9.70;25.25;102265.22;4384047;32;33895;-83
2022/03/21 08:33:07;;;;;;;17.98;7.93;;;;;;;9.29;25.27;102272.22;4372417;32;33568;-83
2022/03/21 08:35:37;;;;;;;15.68;9.05;;;;;;;9.23;25.68;102267.84;4371954;32;33629;-83
2022/03/21 08:38:07;;;;;;;19.30;9.55;;;;;;;9.76;25.42;102261.69;4383994;32;32950;-83
2022/03/21 08:40:36;;;;;;;13.13;6.90;;;;;;;10.00;24.17;102251.06;4384437;32;33660;-83
2022/03/21 08:43:04;;;;;;;16.67;8.30;;;;;;;9.61;24.67;102251.16;4371888;32;33937;-83
2022/03/21 08:45:33;;;;;;;21.05;8.73;;;;;;;9.74;25.15;102259.06;4384593;32;32846;-83
2022/03/21 08:48:01;;;;;;;13.77;7.50;;;;;;;9.65;26.07;102253.78;4360055;32;33958;-83
2022/03/21 08:50:29;;;;;;;15.40;8.05;;;;;;;10.32;24.19;102244.88;4359693;32;35161;-83
2022/03/21 08:52:58;;;;;;;16.33;8.88;;;;;;;9.90;24.35;102244.06;4360120;32;33421;-83
2022/03/21 08:55:26;;;;;;;16.12;8.88;;;;;;;10.12;24.26;102246.66;4372153;32;32827;-80
2022/03/21 08:57:54;;;;;;;16.52;8.38;;;;;;;10.42;23.81;102240.44;4384584;32;32220;-81
2022/03/21 09:00:22;;;;;;;15.43;8.35;;;;;;;10.38;25.34;102244.84;4347400;32;34036;-80
2022/03/21 09:02:52;;;;;;;16.58;8.73;;;;;;;9.96;24.20;102240.53;4371266;32;33273;-80
2022/03/21 09:05:20;;;;;;;15.38;7.60;;;;;;;10.47;23.74;102242.16;4371840;32;34689;-79
2022/03/21 09:07:48;;;;;;;21.45;8.77;;;;;;;10.72;23.64;102236.75;4384827;32;33528;-80
2022/03/21 09:10:17;;;;;;;18.80;8.15;;;;;;;10.27;24.16;102240.50;4371435;32;33924;-80
2022/03/21 09:12:44;;;;;;;17.98;8.57;;;;;;;10.59;23.63;102235.09;4359923;32;34033;-81
2022/03/21 09:15:12;;;;;;;12.40;8.57;;;;;;;10.33;23.87;102232.53;4372253;32;33351;-80
2022/03/21 09:17:40;;;;;;;14.80;8.45;;;;;;;10.26;24.18;102229.06;4383487;32;34136;-80
2022/03/21 09:20:08;;;;;;;15.68;8.77;;;;;;;11.09;23.27;102225.94;4385037;32;32330;-80
2022/03/21 09:22:36;;;;;;;18.45;9.57;;;;;;;10.88;23.32;102230.50;4384950;32;34508;-80
2022/03/21 09:25:04;;;;;;;16.00;8.35;;;;;;;10.85;23.02;102225.22;4372103;32;33764;-80
2022/03/21 09:27:32;;;;;;;14.13;8.15;;;;;;;10.82;23.14;102222.59;4384487;32;33729;-80
2022/03/21 09:29:59;;;;;;;13.55;7.22;;;;;;;10.77;23.53;102224.38;4372447;32;33255;-80
2022/03/21 09:32:27;;;;;;;14.10;7.75;;;;;;;11.38;22.22;102215.12;4371474;32;33590;-80
2022/03/21 09:34:54;;;;;;;18.60;9.35;;;;;;;11.25;22.55;102214.34;4383809;32;33359;-80
2022/03/21 09:37:22;;;;;;;12.70;8.23;;;;;;;11.62;23.05;102211.41;4359961;32;33403;-80
2022/03/21 09:39:50;;;;;;;16.67;8.70;;;;;;;12.16;22.08;102203.81;4372426;32;33742;-80
2022/03/21 09:42:20;;;;;;;16.42;7.87;;;;;;;11.71;22.17;102208.66;4372437;32;33823;-80
2022/03/21 09:44:53;;;;;;;15.45;8.65;;;;;;;11.86;21.93;102208.53;4359962;32;34174;-80
2022/03/21 09:50:31;;;;;;;12.93;7.43;;;;;;;11.69;21.22;102205.16;4379853;32;33988;-81
2022/03/21 09:52:59;;;;;;;12.60;7.00;;;;;;;11.97;21.76;102209.31;4370963;32;32618;-80
2022/03/21 09:55:27;;;;;;;12.68;7.28;;;;;;;11.42;21.50;102211.59;4358053;32;32998;-80
2022/03/21 09:57:55;;;;;;;13.32;7.78;;;;;;;11.94;20.56;102208.47;4371588;32;33799;-80
2022/03/21 10:00:23;;;;;;;16.95;6.93;;;;;;;11.92;23.37;102210.25;4368767;32;33406;-82
2022/03/21 10:02:51;;;;;;;9.80;5.07;;;;;;;12.49;19.91;102202.50;4382913;32;33888;-80
2022/03/21 10:05:42;;;;;;;15.32;7.40;;;;;;;12.40;18.20;102198.19;4382641;32;32899;-80
2022/03/21 10:08:18;;;;;;;15.73;7.43;;;;;;;12.57;20.87;102196.19;4383185;32;35200;-80
2022/03/21 10:11:05;;;;;;;9.10;5.87;;;;;;;12.39;21.98;102196.47;4359823;32;33890;-81
2022/03/21 10:13:35;;;;;;;14.60;7.00;;;;;;;12.87;20.39;102191.34;4382531;32;33804;-80
2022/03/21 10:16:14;;;;;;;12.93;6.87;;;;;;;13.12;18.53;102180.34;4370227;32;33005;-80
2022/03/21 10:18:55;;;;;;;13.55;7.75;;;;;;;13.35;18.80;102175.56;4370668;32;32781;-80
2022/03/21 10:21:25;;;;;;;17.33;8.68;;;;;;;12.66;19.69;102187.22;4359360;32;33452;-80
2022/03/21 10:24:06;;;;;;;14.57;7.95;;;;;;;12.59;20.54;102182.94;4369912;32;34146;-80
2022/03/21 10:26:36;;;;;;;11.88;7.25;;;;;;;12.94;21.03;102171.78;4381764;32;33680;-80
2022/03/21 10:29:09;;;;;;;14.18;8.07;;;;;;;12.74;19.53;102172.09;4370704;32;32066;-80
2022/03/21 10:31:42;;;;;;;14.60;8.50;;;;;;;13.21;22.37;102172.25;4370829;32;33673;-80
2022/03/21 10:34:12;;;;;;;14.07;9.07;;;;;;;13.51;21.14;102161.12;4358325;32;32586;-80
2022/03/21 10:37:06;;;;;;;13.07;8.45;;;;;;;14.21;19.08;102158.84;4383407;32;33018;-80
2022/03/21 10:39:35;;;;;;;18.77;9.50;;;;;;;14.01;20.87;102153.97;4382547;32;33577;-81
2022/03/21 10:42:09;;;;;;;11.93;8.13;;;;;;;14.53;20.58;102144.91;4382908;32;32772;-80
2022/03/21 10:44:38;;;;;;;13.45;8.90;;;;;;;14.17;18.05;102140.34;4369763;32;33487;-80
2022/03/21 10:47:08;;;;;;;14.87;8.18;;;;;;;14.63;17.85;102140.25;4369986;32;33543;-81
2022/03/21 10:49:40;;;;;;;13.80;8.23;;;;;;;14.38;17.71;102137.22;4370092;32;33369;-80
2022/03/21 10:52:08;;;;;;;11.77;7.55;;;;;;;15.22;17.41;102126.38;4382081;32;33576;-80
2022/03/21 10:54:49;;;;;;;13.50;8.00;;;;;;;14.74;17.43;102129.34;4370944;32;33905;-80
2022/03/21 10:57:32;;;;;;;14.43;8.25;;;;;;;14.24;17.94;102133.97;4382659;32;33382;-81
2022/03/21 11:00:20;;;;;;;11.68;7.53;;;;;;;14.32;17.51;102130.25;4357260;32;32439;-80
2022/03/21 11:02:51;;;;;;;12.70;8.27;;;;;;;15.00;18.49;102123.38;4396120;32;32705;-81
2022/03/21 11:05:20;;;;;;;12.45;7.18;;;;;;;14.68;17.46;102121.53;4372140;32;34258;-81
2022/03/21 11:07:49;;;;;;;11.32;7.82;;;;;;;14.79;17.73;102127.44;4385496;32;34156;-81
2022/03/21 11:10:17;;;;;;;12.00;7.15;;;;;;;14.96;17.25;102106.62;4361042;32;33467;-81
2022/03/21 11:12:47;;;;;;;14.43;6.95;;;;;;;14.72;16.55;102107.25;4372394;32;33848;-80
2022/03/21 11:15:16;;;;;;;11.12;6.72;;;;;;;14.94;18.30;102102.25;4359775;32;32726;-81
2022/03/21 11:17:44;;;;;;;10.60;7.18;;;;;;;14.48;16.88;102108.66;4384966;32;34198;-80
2022/03/21 11:20:14;;;;;;;10.55;6.45;;;;;;;14.13;16.72;102117.41;4385000;32;33629;-81
2022/03/21 11:22:42;;;;;;;11.52;6.90;;;;;;;14.00;17.20;102100.84;4397695;32;33944;-81
2022/03/21 11:25:15;;;;;;;12.50;7.22;;;;;;;14.68;17.77;102084.31;4371723;32;33538;-81
2022/03/21 11:28:39;;;;;;;10.75;7.15;;;;;;;14.92;17.08;102094.31;4385060;32;32811;-80
2022/03/21 11:31:27;;;;;;;11.57;6.85;;;;;;;14.62;17.23;102089.75;4353325;32;32767;-80
2022/03/21 11:33:58;;;;;;;10.48;6.57;;;;;;;15.34;15.81;102080.81;4372360;32;32347;-80
2022/03/21 11:36:25;;;;;;;12.45;7.15;;;;;;;14.69;16.80;102084.25;4385252;32;33687;-80
2022/03/21 11:39:01;;;;;;;11.38;7.18;;;;;;;14.90;16.46;102077.50;4361330;32;32582;-80
2022/03/21 11:41:31;;;;;;;10.77;6.45;;;;;;;14.89;19.81;102086.41;4382220;32;33443;-80
2022/03/21 11:44:05;;;;;;;10.20;6.80;;;;;;;15.55;16.23;102084.66;4384779;32;34095;-80
2022/03/21 11:46:34;;;;;;;9.82;6.85;;;;;;;15.32;16.25;102079.97;4360324;32;33056;-80
2022/03/21 11:49:04;;;;;;;10.30;6.68;;;;;;;15.59;16.13;102071.22;4372124;32;34093;-80
2022/03/21 11:51:43;;;;;;;9.80;6.82;;;;;;;15.42;15.46;102061.94;4371060;32;33490;-80
2022/03/21 11:54:31;;;;;;;11.60;6.47;;;;;;;15.06;16.72;102054.06;4365678;32;33232;-80
2022/03/21 11:57:26;;;;;;;12.73;7.03;;;;;;;15.56;15.87;102055.31;4372044;32;33897;-80
2022/03/21 11:59:55;;;;;;;12.20;6.70;;;;;;;14.88;16.50;102057.19;4371931;32;32103;-80